createdAt,value
2023-05-10T00:01:31.956Z,9.50
2023-05-10T00:03:59.383Z,9.05
2023-05-10T00:06:27.098Z,9.48
2023-05-10T00:08:54.537Z,9.77
2023-05-10T00:11:23.191Z,8.90
2023-05-10T00:13:50.808Z,9.70
2023-05-10T00:16:18.312Z,9.35
2023-05-10T00:18:47.810Z,8.85
2023-05-10T00:21:21.033Z,8.90
2023-05-10T00:23:48.305Z,9.13
2023-05-10T00:26:16.158Z,8.85
2023-05-10T00:28:43.702Z,8.68
2023-05-10T00:31:11.271Z,8.30
2023-05-10T00:33:38.678Z,9.10
2023-05-10T00:36:08.694Z,9.10
2023-05-10T00:38:38.324Z,9.18
2023-05-10T00:41:05.797Z,8.85
2023-05-10T00:43:33.034Z,8.82
2023-05-10T00:46:00.752Z,8.35
2023-05-10T00:48:30.519Z,8.90
2023-05-10T00:50:58.021Z,8.57
2023-05-10T00:53:26.082Z,8.35
2023-05-10T00:55:53.585Z,8.77
2023-05-10T00:58:22.008Z,8.23
2023-05-10T01:00:49.986Z,8.90
2023-05-10T01:03:19.675Z,8.68
2023-05-10T01:05:46.985Z,8.98
2023-05-10T01:08:14.564Z,7.88
2023-05-10T01:10:44.630Z,8.75
2023-05-10T01:13:12.695Z,8.65
2023-05-10T01:15:41.145Z,8.05
2023-05-10T01:18:10.207Z,8.60
2023-05-10T01:20:44.661Z,8.77
2023-05-10T01:23:46.805Z,9.20
2023-05-10T01:26:19.866Z,8.45
2023-05-10T01:29:12.884Z,8.43
2023-05-10T01:32:08.592Z,8.63
2023-05-10T01:34:45.856Z,8.00
2023-05-10T01:37:21.575Z,7.97
2023-05-10T01:40:01.768Z,8.30
2023-05-10T01:42:38.001Z,8.63
2023-05-10T01:45:37.321Z,8.43
2023-05-10T01:48:11.597Z,8.70
2023-05-10T01:50:44.996Z,8.75
2023-05-10T01:53:14.201Z,8.82
2023-05-10T01:55:53.887Z,8.23
2023-05-10T01:58:31.917Z,7.65
2023-05-10T02:01:02.843Z,8.57
2023-05-10T02:03:33.583Z,7.78
2023-05-10T02:06:01.312Z,8.68
2023-05-10T02:08:29.285Z,7.95
2023-05-10T02:10:58.334Z,8.30
2023-05-10T02:13:28.763Z,8.23
2023-05-10T02:15:58.323Z,8.35
2023-05-10T02:18:28.315Z,7.90
2023-05-10T02:20:59.297Z,8.18
2023-05-10T02:23:27.560Z,8.82
2023-05-10T02:25:57.775Z,8.30
2023-05-10T02:28:27.303Z,8.15
2023-05-10T02:30:56.651Z,8.18
2023-05-10T02:33:26.037Z,7.85
2023-05-10T02:35:54.880Z,7.53
2023-05-10T02:38:24.031Z,8.35
2023-05-10T02:40:54.009Z,8.02
2023-05-10T02:43:24.442Z,8.13
2023-05-10T02:45:52.909Z,7.90
2023-05-10T02:48:20.251Z,8.52
2023-05-10T02:50:52.629Z,8.10
2023-05-10T02:53:29.976Z,8.27
2023-05-10T02:56:01.872Z,8.57
2023-05-10T02:58:29.735Z,8.45
2023-05-10T03:00:56.958Z,8.80
2023-05-10T03:03:24.346Z,8.40
2023-05-10T03:05:51.874Z,8.30
2023-05-10T03:08:19.223Z,9.05
2023-05-10T03:11:00.392Z,8.98
2023-05-10T03:13:37.225Z,8.55
2023-05-10T03:16:15.952Z,9.40
2023-05-10T03:18:52.116Z,8.52
2023-05-10T03:21:23.495Z,9.30
2023-05-10T03:23:54.963Z,9.02
2023-05-10T03:26:27.412Z,8.98
2023-05-10T03:28:55.901Z,9.50
2023-05-10T03:31:23.748Z,9.18
2023-05-10T03:33:53.427Z,9.82
2023-05-10T03:36:22.190Z,9.60
2023-05-10T03:38:50.747Z,9.40
2023-05-10T03:41:18.077Z,8.93
2023-05-10T03:43:47.271Z,10.02
2023-05-10T03:46:14.750Z,9.93
2023-05-10T03:48:42.264Z,10.32
2023-05-10T03:51:09.724Z,10.02
2023-05-10T03:53:38.144Z,11.02
2023-05-10T03:56:05.778Z,10.40
2023-05-10T03:58:33.145Z,10.27
2023-05-10T04:01:06.745Z,11.02
2023-05-10T04:06:02.837Z,11.18
2023-05-10T04:08:36.249Z,11.25
2023-05-10T04:11:10.968Z,9.88
2023-05-10T04:13:38.552Z,10.65
2023-05-10T04:16:06.345Z,9.90
2023-05-10T04:18:33.947Z,10.07
2023-05-10T04:21:02.530Z,11.18
2023-05-10T04:23:29.834Z,10.82
2023-05-10T04:26:03.932Z,10.20
2023-05-10T04:28:31.337Z,11.05
2023-05-10T04:31:09.267Z,10.05
2023-05-10T04:33:37.012Z,10.32
2023-05-10T04:36:04.636Z,10.60
2023-05-10T04:38:32.075Z,10.73
2023-05-10T04:41:08.034Z,10.88
2023-05-10T04:43:35.227Z,10.23
2023-05-10T04:46:03.846Z,10.63
2023-05-10T04:48:31.444Z,10.30
2023-05-10T04:50:59.101Z,9.80
2023-05-10T04:53:26.625Z,9.93
2023-05-10T04:55:53.972Z,10.15
2023-05-10T04:58:21.492Z,9.18
2023-05-10T05:00:49.940Z,10.23
2023-05-10T05:03:17.466Z,9.70
2023-05-10T05:05:45.985Z,9.00
2023-05-10T05:08:14.112Z,10.50
2023-05-10T05:10:43.398Z,9.63
2023-05-10T05:13:10.807Z,9.35
2023-05-10T05:15:38.157Z,8.95
2023-05-10T05:18:05.735Z,9.20
2023-05-10T05:20:36.209Z,9.10
2023-05-10T05:23:03.784Z,9.25
2023-05-10T05:25:32.241Z,8.73
2023-05-10T05:28:00.707Z,9.02
2023-05-10T05:30:28.142Z,8.55
2023-05-10T05:32:55.593Z,8.85
2023-05-10T05:35:22.976Z,8.95
2023-05-10T05:37:50.571Z,8.93
2023-05-10T05:40:17.983Z,9.15
2023-05-10T05:42:47.666Z,9.05
2023-05-10T05:45:17.138Z,9.75
2023-05-10T05:47:44.466Z,8.63
2023-05-10T05:50:11.970Z,9.40
2023-05-10T05:52:39.309Z,9.15
2023-05-10T05:55:06.879Z,8.55
2023-05-10T05:57:34.470Z,8.30
2023-05-10T06:00:04.074Z,8.13
2023-05-10T06:02:31.220Z,8.45
2023-05-10T06:04:59.741Z,8.35
2023-05-10T06:07:29.221Z,7.97
2023-05-10T06:09:56.677Z,7.47
2023-05-10T06:12:24.031Z,6.68
2023-05-10T06:14:51.514Z,6.07
2023-05-10T06:17:19.370Z,6.68
2023-05-10T06:19:46.444Z,5.93
2023-05-10T06:22:13.922Z,6.00
2023-05-10T06:24:42.744Z,5.70
2023-05-10T06:27:09.721Z,5.80
2023-05-10T06:29:36.832Z,5.57
2023-05-10T06:32:05.053Z,5.30
2023-05-10T06:34:32.895Z,5.13
2023-05-10T06:37:00.225Z,5.30
2023-05-10T06:39:27.825Z,5.10
2023-05-10T06:41:55.689Z,5.20
2023-05-10T06:44:23.134Z,5.50
2023-05-10T06:46:51.331Z,5.10
2023-05-10T06:49:18.549Z,5.25
2023-05-10T06:51:46.852Z,5.38
2023-05-10T06:54:13.926Z,4.88
2023-05-10T06:56:41.325Z,5.22
2023-05-10T06:59:08.911Z,4.93
2023-05-10T07:01:36.355Z,5.10
2023-05-10T07:04:03.774Z,5.03
2023-05-10T07:06:35.228Z,4.22
2023-05-10T07:09:02.901Z,5.35
2023-05-10T07:11:37.390Z,4.78
2023-05-10T07:14:04.825Z,4.53
2023-05-10T07:16:32.397Z,5.10
2023-05-10T07:19:06.688Z,5.00
2023-05-10T07:21:33.986Z,5.00
2023-05-10T07:24:02.159Z,4.82
2023-05-10T07:26:35.374Z,4.88
2023-05-10T07:29:03.720Z,4.70
2023-05-10T07:31:32.040Z,5.22
2023-05-10T07:34:05.937Z,5.18
2023-05-10T07:36:33.787Z,4.40
2023-05-10T07:39:02.286Z,4.80
2023-05-10T07:41:29.444Z,4.10
2023-05-10T07:43:56.911Z,4.45
2023-05-10T07:46:24.306Z,4.60
2023-05-10T07:48:53.880Z,4.53
2023-05-10T07:51:21.244Z,4.80
2023-05-10T07:53:50.878Z,3.30
2023-05-10T07:56:23.449Z,4.75
2023-05-10T07:58:51.039Z,4.38
2023-05-10T08:01:18.334Z,4.40
2023-05-10T08:03:46.026Z,4.70
2023-05-10T08:06:13.791Z,5.03
2023-05-10T08:08:41.686Z,4.47
2023-05-10T08:11:09.111Z,4.65
2023-05-10T08:13:36.578Z,4.57
2023-05-10T08:16:04.026Z,4.93
2023-05-10T08:18:31.576Z,4.47
2023-05-10T08:21:00.690Z,4.88
2023-05-10T08:23:27.828Z,5.13
2023-05-10T08:25:56.528Z,4.60
2023-05-10T08:28:26.674Z,4.57
2023-05-10T08:30:57.151Z,4.85
2023-05-10T08:33:27.189Z,4.60
2023-05-10T08:35:55.492Z,4.55
2023-05-10T08:38:24.580Z,4.90
2023-05-10T08:41:00.058Z,4.43
2023-05-10T08:43:33.234Z,4.38
2023-05-10T08:46:06.578Z,4.75
2023-05-10T08:48:36.094Z,5.18
2023-05-10T08:51:05.045Z,3.95
2023-05-10T08:53:34.391Z,4.97
2023-05-10T08:56:03.674Z,5.05
2023-05-10T08:58:32.064Z,4.95
2023-05-10T09:01:00.354Z,5.47
2023-05-10T09:03:40.440Z,4.85
2023-05-10T09:06:08.246Z,5.85
2023-05-10T09:08:37.994Z,5.28
2023-05-10T09:11:05.464Z,5.15
2023-05-10T09:13:34.128Z,5.45
2023-05-10T09:16:09.850Z,5.65
2023-05-10T09:18:47.778Z,5.57
2023-05-10T09:21:15.152Z,5.43
2023-05-10T09:23:51.444Z,5.68
2023-05-10T09:26:24.340Z,6.05
2023-05-10T09:28:54.376Z,5.13
2023-05-10T09:31:21.608Z,5.28
2023-05-10T09:33:50.715Z,4.50
2023-05-10T09:36:18.590Z,4.47
2023-05-10T09:38:54.437Z,4.43
2023-05-10T09:41:23.743Z,4.88
2023-05-10T09:43:51.251Z,3.45
2023-05-10T09:46:27.531Z,4.25
2023-05-10T09:48:55.082Z,3.90
2023-05-10T09:51:23.844Z,3.70
2023-05-10T09:54:14.193Z,3.80
2023-05-10T09:56:42.059Z,3.80
2023-05-10T09:59:19.932Z,4.45
2023-05-10T10:01:53.853Z,3.42
2023-05-10T10:04:22.690Z,3.95
2023-05-10T10:07:06.541Z,3.70
2023-05-10T10:09:36.215Z,3.40
2023-05-10T10:12:05.807Z,3.33
2023-05-10T10:14:35.803Z,3.10
2023-05-10T10:19:36.883Z,3.45
2023-05-10T10:22:07.087Z,3.38
2023-05-10T10:24:43.459Z,3.33
2023-05-10T10:27:26.193Z,3.70
2023-05-10T10:30:03.488Z,3.75
2023-05-10T10:32:54.107Z,3.50
2023-05-10T10:35:21.631Z,3.25
2023-05-10T10:37:51.427Z,3.25
2023-05-10T10:40:33.662Z,3.60
2023-05-10T10:43:27.939Z,3.57
2023-05-10T10:46:12.799Z,3.50
2023-05-10T10:49:11.303Z,3.15
2023-05-10T10:51:42.087Z,3.60
2023-05-10T10:54:13.648Z,4.18
2023-05-10T10:56:40.953Z,3.53
2023-05-10T10:59:09.753Z,3.95
2023-05-10T11:01:37.468Z,3.30
2023-05-10T11:04:04.754Z,3.22
2023-05-10T11:06:34.780Z,3.17
2023-05-10T11:09:12.872Z,3.08
2023-05-10T11:12:00.391Z,3.22
2023-05-10T11:14:28.241Z,3.63
2023-05-10T11:16:58.398Z,3.35
2023-05-10T11:19:32.045Z,3.20
2023-05-10T11:22:05.673Z,3.15
2023-05-10T11:24:34.640Z,3.08
2023-05-10T11:27:02.482Z,3.00
2023-05-10T11:29:30.727Z,3.08
2023-05-10T11:32:01.183Z,3.33
2023-05-10T11:34:31.724Z,2.95
2023-05-10T11:36:59.645Z,2.67
2023-05-10T11:39:32.151Z,3.28
2023-05-10T11:42:00.416Z,2.92
2023-05-10T11:44:34.652Z,3.08
2023-05-10T11:47:08.520Z,3.08
2023-05-10T11:49:36.181Z,3.00
2023-05-10T11:52:10.562Z,3.33
2023-05-10T11:54:38.256Z,3.08
2023-05-10T11:57:05.481Z,3.10
2023-05-10T11:59:33.070Z,2.25
2023-05-10T12:02:00.537Z,2.65
2023-05-10T12:04:30.871Z,2.92
2023-05-10T12:06:58.437Z,2.83
2023-05-10T12:09:39.737Z,3.10
2023-05-10T12:12:11.292Z,2.90
2023-05-10T12:14:39.593Z,3.15
2023-05-10T12:17:06.633Z,2.92
2023-05-10T12:19:40.434Z,3.20
2023-05-10T12:24:39.425Z,2.45
2023-05-10T12:29:56.617Z,3.00
2023-05-10T12:32:39.448Z,3.10
2023-05-10T12:35:07.466Z,3.00
2023-05-10T12:37:39.675Z,2.65
2023-05-10T12:40:09.380Z,2.85
2023-05-10T12:42:37.933Z,3.28
2023-05-10T12:45:06.802Z,3.05
2023-05-10T12:47:34.740Z,2.67
2023-05-10T12:50:02.912Z,3.25
2023-05-10T12:52:32.795Z,6.43
2023-05-10T12:55:01.300Z,4.82
2023-05-10T12:57:29.084Z,2.70
2023-05-10T12:59:56.905Z,2.90
2023-05-10T13:02:24.392Z,3.53
2023-05-10T13:04:51.978Z,3.00
2023-05-10T13:07:19.250Z,2.83
2023-05-10T13:09:46.368Z,3.40
2023-05-10T13:12:13.645Z,3.15
2023-05-10T13:14:41.831Z,2.90
2023-05-10T13:17:09.288Z,5.53
2023-05-10T13:19:36.507Z,2.80
2023-05-10T13:22:04.288Z,2.78
2023-05-10T13:24:31.562Z,2.80
2023-05-10T13:27:01.162Z,2.40
2023-05-10T13:29:28.403Z,2.60
2023-05-10T13:31:56.895Z,2.45
2023-05-10T13:34:25.403Z,2.80
2023-05-10T13:36:54.145Z,2.65
2023-05-10T13:39:22.054Z,2.60
2023-05-10T13:41:50.519Z,2.70
2023-05-10T13:44:17.698Z,2.70
2023-05-10T13:46:45.847Z,2.65
2023-05-10T13:49:13.335Z,2.55
2023-05-10T13:51:40.690Z,2.20
2023-05-10T13:54:08.523Z,2.33
2023-05-10T13:56:36.026Z,2.83
2023-05-10T13:59:03.296Z,2.90
2023-05-10T14:01:36.583Z,2.90
2023-05-10T14:04:03.739Z,2.40
2023-05-10T14:06:31.859Z,2.53
2023-05-10T14:08:59.936Z,2.45
2023-05-10T14:11:26.974Z,2.90
2023-05-10T14:13:54.448Z,2.80
2023-05-10T14:16:23.065Z,2.88
2023-05-10T14:18:52.561Z,2.88
2023-05-10T14:21:19.862Z,3.20
2023-05-10T14:23:47.453Z,2.78
2023-05-10T14:26:14.715Z,2.60
2023-05-10T14:28:42.413Z,2.95
2023-05-10T14:31:10.606Z,2.50
2023-05-10T14:33:38.170Z,2.63
2023-05-10T14:36:07.386Z,2.47
2023-05-10T14:38:34.621Z,3.33
2023-05-10T14:41:02.556Z,3.20
2023-05-10T14:43:30.193Z,2.92
2023-05-10T14:45:57.460Z,3.53
2023-05-10T14:48:25.034Z,3.00
2023-05-10T14:50:53.934Z,3.00
2023-05-10T14:53:21.481Z,3.03
2023-05-10T14:55:48.781Z,2.83
2023-05-10T14:58:16.288Z,2.60
2023-05-10T15:00:45.866Z,2.65
2023-05-10T15:03:13.904Z,2.60
2023-05-10T15:05:41.812Z,2.90
2023-05-10T15:08:10.454Z,2.80
2023-05-10T15:10:38.081Z,2.78
2023-05-10T15:13:06.804Z,2.70
2023-05-10T15:15:34.192Z,2.70
2023-05-10T15:18:01.636Z,2.90
2023-05-10T15:20:30.066Z,3.28
2023-05-10T15:22:57.738Z,3.00
2023-05-10T15:25:25.066Z,3.08
2023-05-10T15:27:52.560Z,3.30
2023-05-10T15:30:21.251Z,3.58
2023-05-10T15:32:50.700Z,2.70
2023-05-10T15:35:18.997Z,2.60
2023-05-10T15:37:49.094Z,2.63
2023-05-10T15:40:17.034Z,3.10
2023-05-10T15:42:45.707Z,2.55
2023-05-10T15:45:16.504Z,2.25
2023-05-10T15:47:49.711Z,3.38
2023-05-10T15:50:17.884Z,2.80
2023-05-10T15:52:45.283Z,2.67
2023-05-10T15:55:13.673Z,2.90
2023-05-10T15:57:41.913Z,2.70
2023-05-10T16:00:11.262Z,2.70
2023-05-10T16:02:38.465Z,2.45
2023-05-10T16:05:06.961Z,3.75
2023-05-10T16:07:34.482Z,3.50
2023-05-10T16:10:04.526Z,2.70
2023-05-10T16:12:31.852Z,2.40
2023-05-10T16:14:59.285Z,2.60
2023-05-10T16:17:26.896Z,2.95
2023-05-10T16:19:56.329Z,2.72
2023-05-10T16:22:27.400Z,2.60
2023-05-10T16:24:54.872Z,2.50
2023-05-10T16:27:22.070Z,2.83
2023-05-10T16:29:49.562Z,2.75
2023-05-10T16:32:17.459Z,2.70
2023-05-10T16:34:44.605Z,2.42
2023-05-10T16:37:17.755Z,2.67
2023-05-10T16:39:51.120Z,2.67
2023-05-10T16:42:19.091Z,2.88
2023-05-10T16:44:47.599Z,2.55
2023-05-10T16:47:15.108Z,2.88
2023-05-10T16:49:50.215Z,2.70
2023-05-10T16:52:17.703Z,3.00
2023-05-10T16:54:46.176Z,3.13
2023-05-10T16:57:13.611Z,3.15
2023-05-10T16:59:41.038Z,2.90
2023-05-10T17:02:08.258Z,2.65
2023-05-10T17:04:36.579Z,2.95
2023-05-10T17:07:05.057Z,3.10
2023-05-10T17:09:32.522Z,4.00
2023-05-10T17:12:00.040Z,3.15
2023-05-10T17:14:27.591Z,3.60
2023-05-10T17:16:56.052Z,3.95
2023-05-10T17:19:26.155Z,3.80
2023-05-10T17:21:53.960Z,3.80
2023-05-10T17:24:21.381Z,3.33
2023-05-10T17:26:48.856Z,3.85
2023-05-10T17:29:16.507Z,4.50
2023-05-10T17:31:43.736Z,5.15
2023-05-10T17:34:11.245Z,5.28
2023-05-10T17:36:38.652Z,5.38
2023-05-10T17:39:11.824Z,4.38
2023-05-10T17:41:39.264Z,3.50
2023-05-10T17:44:06.674Z,3.53
2023-05-10T17:46:33.904Z,3.33
2023-05-10T17:49:01.148Z,3.20
2023-05-10T17:51:29.162Z,4.50
2023-05-10T17:53:57.455Z,3.95
2023-05-10T17:56:24.779Z,3.90
2023-05-10T17:58:53.965Z,4.43
2023-05-10T18:01:21.441Z,6.43
2023-05-10T18:03:49.870Z,7.03
2023-05-10T18:06:17.023Z,5.38
2023-05-10T18:08:45.082Z,6.70
2023-05-10T18:11:12.272Z,5.18
2023-05-10T18:13:39.911Z,5.47
2023-05-10T18:16:09.126Z,5.93
2023-05-10T18:18:37.137Z,5.90
2023-05-10T18:21:04.712Z,5.43
2023-05-10T18:26:00.082Z,5.47
2023-05-10T18:28:27.873Z,5.07
2023-05-10T18:30:54.995Z,5.18
2023-05-10T18:33:22.518Z,5.50
2023-05-10T18:35:50.166Z,4.45
2023-05-10T18:38:23.953Z,4.07
2023-05-10T18:43:31.870Z,4.07
2023-05-10T18:45:58.946Z,3.95
2023-05-10T18:48:26.340Z,4.10
2023-05-10T18:50:54.472Z,5.22
2023-05-10T18:53:23.293Z,4.85
2023-05-10T18:55:58.832Z,4.65
2023-05-10T18:58:29.554Z,5.30
2023-05-10T19:00:58.947Z,5.00
2023-05-10T19:03:26.819Z,6.65
2023-05-10T19:06:03.005Z,7.35
2023-05-10T19:08:31.016Z,6.82
2023-05-10T19:10:58.709Z,7.50
2023-05-10T19:13:28.683Z,6.88
2023-05-10T19:16:12.792Z,6.13
2023-05-10T19:18:41.095Z,5.50
2023-05-10T19:21:11.261Z,6.38
2023-05-10T19:23:43.694Z,5.75
2023-05-10T19:26:12.882Z,6.03
2023-05-10T19:28:41.362Z,5.97
2023-05-10T19:31:22.017Z,5.03
2023-05-10T19:33:50.097Z,4.78
2023-05-10T19:36:33.318Z,5.20
2023-05-10T19:39:06.837Z,5.60
2023-05-10T19:41:34.717Z,4.97
2023-05-10T19:44:02.587Z,4.90
2023-05-10T19:46:30.066Z,5.15
2023-05-10T19:48:58.325Z,5.38
2023-05-10T19:51:29.260Z,5.30
2023-05-10T19:53:58.479Z,5.35
2023-05-10T19:56:27.485Z,5.50
2023-05-10T19:58:55.760Z,5.03
2023-05-10T20:01:29.601Z,5.68
2023-05-10T20:03:57.292Z,5.32
2023-05-10T20:06:26.132Z,5.30
2023-05-10T20:08:53.812Z,5.50
2023-05-10T20:11:28.002Z,5.70
2023-05-10T20:13:57.824Z,5.60
2023-05-10T20:16:28.605Z,6.05
2023-05-10T20:18:56.267Z,5.45
2023-05-10T20:21:24.255Z,5.28
2023-05-10T20:23:51.550Z,5.72
2023-05-10T20:26:18.817Z,5.68
2023-05-10T20:28:46.844Z,5.32
2023-05-10T20:31:14.372Z,5.20
2023-05-10T20:33:42.019Z,4.90
2023-05-10T20:36:10.062Z,5.45
2023-05-10T20:38:37.794Z,5.90
2023-05-10T20:41:05.247Z,6.00
2023-05-10T20:43:33.168Z,6.65
2023-05-10T20:46:05.615Z,6.32
2023-05-10T20:48:33.460Z,6.38
2023-05-10T20:51:03.832Z,6.40
2023-05-10T20:53:31.340Z,6.32
2023-05-10T20:56:00.557Z,5.45
2023-05-10T20:58:28.224Z,5.88
2023-05-10T21:00:55.591Z,5.28
2023-05-10T21:03:23.094Z,5.32
2023-05-10T21:05:51.526Z,5.40
2023-05-10T21:08:19.112Z,4.95
2023-05-10T21:10:46.826Z,4.85
2023-05-10T21:13:14.025Z,4.93
2023-05-10T21:15:48.094Z,5.22
2023-05-10T21:18:15.700Z,4.53
2023-05-10T21:20:42.966Z,5.18
2023-05-10T21:23:18.826Z,4.82
2023-05-10T21:25:46.226Z,5.45
2023-05-10T21:28:14.534Z,5.03
2023-05-10T21:30:42.159Z,5.30
2023-05-10T21:33:09.562Z,5.20
2023-05-10T21:35:39.609Z,4.97
2023-05-10T21:38:06.957Z,4.97
2023-05-10T21:40:34.519Z,4.90
2023-05-10T21:43:02.935Z,5.05
2023-05-10T21:45:33.038Z,5.10
2023-05-10T21:48:00.890Z,5.28
2023-05-10T21:50:28.893Z,4.63
2023-05-10T21:52:56.894Z,5.00
2023-05-10T21:55:24.368Z,4.90
2023-05-10T21:57:51.888Z,5.47
2023-05-10T22:00:20.538Z,5.55
2023-05-10T22:02:47.772Z,5.13
2023-05-10T22:05:15.538Z,5.47
2023-05-10T22:07:42.617Z,5.80
2023-05-10T22:10:16.520Z,6.07
2023-05-10T22:12:44.094Z,7.43
2023-05-10T22:15:11.887Z,7.28
2023-05-10T22:17:40.176Z,6.70
2023-05-10T22:20:08.792Z,7.47
2023-05-10T22:22:36.960Z,6.93
2023-05-10T22:25:08.888Z,7.20
2023-05-10T22:27:38.127Z,7.07
2023-05-10T22:30:07.386Z,7.10
2023-05-10T22:32:36.626Z,7.60
2023-05-10T22:35:04.563Z,7.95
2023-05-10T22:37:32.002Z,7.75
2023-05-10T22:39:59.006Z,7.65
2023-05-10T22:42:26.471Z,7.97
2023-05-10T22:44:54.087Z,8.30
2023-05-10T22:47:21.344Z,7.95
2023-05-10T22:49:48.831Z,9.10
2023-05-10T22:52:16.455Z,9.23
2023-05-10T22:54:46.126Z,8.75
2023-05-10T22:57:13.480Z,9.07
2023-05-10T22:59:43.091Z,9.07
2023-05-10T23:02:10.333Z,8.73
2023-05-10T23:04:37.745Z,8.63
2023-05-10T23:07:07.449Z,8.90
2023-05-10T23:09:35.280Z,8.27
2023-05-10T23:12:03.265Z,8.35
2023-05-10T23:14:30.569Z,8.27
2023-05-10T23:16:58.063Z,8.02
2023-05-10T23:19:25.542Z,8.90
2023-05-10T23:21:54.075Z,7.97
2023-05-10T23:24:21.399Z,8.20
2023-05-10T23:26:50.032Z,8.40
2023-05-10T23:29:17.499Z,9.32
2023-05-10T23:31:49.362Z,8.65
2023-05-10T23:34:16.838Z,8.20
2023-05-10T23:36:49.926Z,8.32
2023-05-10T23:39:17.665Z,8.80
2023-05-10T23:41:45.001Z,7.32
2023-05-10T23:44:12.315Z,8.60
2023-05-10T23:46:41.436Z,7.38
2023-05-10T23:49:08.863Z,8.05
2023-05-10T23:51:38.425Z,8.52
2023-05-10T23:54:05.943Z,7.90
2023-05-10T23:56:34.596Z,8.20
2023-05-10T23:59:01.860Z,8.00
